Time;durP1;ratioP1;P1;durP2;ratioP2;P2;SDS_P1;SDS_P2;PMS_P1;PMS_P2;Temp;Humidity;BMP_temperature;BMP_pressure;BME280_temperature;BME280_humidity;BME280_pressure;Samples;Min_cycle;Max_cycle;Signal;HPM_P1;HPM_P2
2020/12/07 00:02:24;;;;;;;13.55;2.92;;;22.00;17.50;;;;;;5072484;28;20119;-67
2020/12/07 00:04:50;;;;;;;13.02;2.88;;;21.90;17.50;;;;;;5056210;28;20107;-68
2020/12/07 00:07:17;;;;;;;9.98;3.20;;;21.80;18.20;;;;;;5054900;28;20069;-66
2020/12/07 00:09:44;;;;;;;7.90;3.25;;;21.70;17.80;;;;;;5074197;28;20071;-66
2020/12/07 00:12:10;;;;;;;10.75;3.40;;;21.50;18.60;;;;;;5053636;28;20068;-66
2020/12/07 00:14:37;;;;;;;10.95;3.30;;;21.40;18.70;;;;;;5054638;28;20076;-66
2020/12/07 00:17:04;;;;;;;13.50;4.47;;;21.30;19.00;;;;;;5073082;28;20174;-66
2020/12/07 00:19:30;;;;;;;23.48;5.07;;;21.20;19.50;;;;;;5036643;28;20563;-67
2020/12/07 00:21:57;;;;;;;22.00;5.97;;;21.10;18.60;;;;;;5054530;28;20076;-66
2020/12/07 00:24:23;;;;;;;20.70;5.25;;;20.90;18.80;;;;;;5071665;28;20094;-66
2020/12/07 00:26:50;;;;;;;19.23;6.18;;;20.70;18.30;;;;;;5068941;28;20116;-66
2020/12/07 00:29:17;;;;;;;18.17;5.65;;;20.60;18.20;;;;;;5045650;28;20081;-67
2020/12/07 00:31:43;;;;;;;13.05;5.47;;;20.40;18.70;;;;;;5061562;28;20110;-66
2020/12/07 00:34:10;;;;;;;24.38;5.60;;;20.20;20.00;;;;;;5061337;28;20072;-66
2020/12/07 00:36:36;;;;;;;16.02;5.45;;;20.00;20.80;;;;;;5064852;28;20111;-66
2020/12/07 00:39:03;;;;;;;14.80;4.75;;;19.90;21.10;;;;;;5064108;28;20087;-66
2020/12/07 00:41:30;;;;;;;12.73;4.85;;;19.80;21.40;;;;;;5059869;28;20080;-65
2020/12/07 00:43:56;;;;;;;;;;;19.60;21.40;;;;;;5067475;28;20077;-65
2020/12/07 00:46:22;;;;;;;25.27;5.72;;;19.40;21.50;;;;;;5041190;28;20367;-66
2020/12/07 00:48:49;;;;;;;;;;;19.20;22.20;;;;;;5060854;28;20533;-65
2020/12/07 00:51:19;;;;;;;22.73;5.03;;;19.10;22.80;;;;;;5083064;28;20059;-66
2020/12/07 00:53:45;;;;;;;19.10;6.38;;;18.90;23.50;;;;;;5043845;28;20122;-66
2020/12/07 00:56:15;;;;;;;25.17;7.63;;;18.80;23.90;;;;;;5061999;28;20073;-65
2020/12/07 00:58:42;;;;;;;22.70;8.85;;;18.60;24.30;;;;;;5038512;28;20104;-67
2020/12/07 01:01:08;;;;;;;31.77;10.82;;;18.50;24.50;;;;;;5064564;28;20410;-66
2020/12/07 01:03:34;;;;;;;;;;;18.30;24.80;;;;;;5061526;28;20155;-67
2020/12/07 01:06:01;;;;;;;74.80;14.05;;;18.10;24.40;;;;;;5065057;28;20019;-66
2020/12/07 01:08:27;;;;;;;;;;;18.00;25.10;;;;;;5063095;28;20109;-66
2020/12/07 01:10:57;;;;;;;43.72;11.63;;;17.90;25.20;;;;;;5057009;28;19961;-67
2020/12/07 01:13:23;;;;;;;47.53;11.23;;;17.80;25.50;;;;;;5057047;28;20084;-66
2020/12/07 01:15:50;;;;;;;;;;;17.70;25.90;;;;;;5058325;28;20065;-67
2020/12/07 01:18:17;;;;;;;45.15;10.88;;;17.60;26.10;;;;;;5038864;28;20091;-67
2020/12/07 01:20:44;;;;;;;57.25;20.13;;;17.50;26.40;;;;;;5058703;28;20160;-67
2020/12/07 01:23:10;;;;;;;;;;;17.30;26.40;;;;;;5055309;28;20083;-67
2020/12/07 01:25:37;;;;;;;60.80;27.10;;;17.20;26.70;;;;;;5035218;28;20064;-67
2020/12/07 01:28:03;;;;;;;;;;;17.10;26.60;;;;;;5078468;28;20605;-67
2020/12/07 01:30:29;;;;;;;61.83;26.52;;;17.00;26.60;;;;;;5059733;28;20026;-67
2020/12/07 01:32:55;;;;;;;;;;;16.90;26.70;;;;;;5072263;28;20097;-67
2020/12/07 01:35:22;;;;;;;54.13;22.77;;;16.90;26.90;;;;;;5075894;28;20446;-67
2020/12/07 01:37:48;;;;;;;;;;;16.80;27.40;;;;;;5085248;28;20100;-66
2020/12/07 01:40:15;;;;;;;51.22;19.88;;;16.70;27.40;;;;;;5081988;28;20026;-66
2020/12/07 01:42:41;;;;;;;;;;;16.60;27.40;;;;;;5076668;28;20073;-67
2020/12/07 01:45:07;;;;;;;50.85;18.70;;;16.50;27.60;;;;;;5071556;28;19964;-67
2020/12/07 01:47:33;;;;;;;;;;;16.50;28.00;;;;;;5058689;28;20217;-67
2020/12/07 01:50:01;;;;;;;56.75;19.58;;;16.40;28.80;;;;;;5080702;28;20462;-65
2020/12/07 01:52:28;;;;;;;46.88;19.38;;;16.30;29.50;;;;;;5081642;28;20144;-64
2020/12/07 01:54:55;;;;;;;57.75;21.15;;;16.20;29.40;;;;;;5078502;28;20539;-65
2020/12/07 01:57:21;;;;;;;52.72;20.48;;;16.10;29.70;;;;;;5081181;28;20508;-65
2020/12/07 01:59:48;;;;;;;49.05;19.90;;;16.10;30.00;;;;;;5060560;28;20215;-65
2020/12/07 02:02:14;;;;;;;;;;;16.10;30.30;;;;;;5061322;28;20468;-65
2020/12/07 02:04:41;;;;;;;38.03;14.77;;;16.10;30.90;;;;;;5078105;28;20312;-66
2020/12/07 02:07:16;;;;;;;39.50;15.13;;;16.00;31.00;;;;;;5058551;28;20085;-66
2020/12/07 02:09:43;;;;;;;37.60;13.35;;;15.90;31.10;;;;;;5060687;28;20080;-65
2020/12/07 02:12:09;;;;;;;40.70;14.65;;;15.90;30.70;;;;;;5079761;28;20072;-66
2020/12/07 02:14:36;;;;;;;43.70;15.02;;;15.80;30.50;;;;;;5058966;28;20084;-65
2020/12/07 02:17:03;;;;;;;58.15;17.42;;;15.80;31.20;;;;;;5062237;28;20097;-65
2020/12/07 02:19:30;;;;;;;71.22;19.27;;;15.70;31.20;;;;;;5059526;28;20109;-64
2020/12/07 02:21:56;;;;;;;;;;;15.60;31.60;;;;;;5070086;28;20076;-63
2020/12/07 02:24:22;;;;;;;73.15;20.83;;;15.50;31.70;;;;;;5082247;28;20298;-66
2020/12/07 02:26:48;;;;;;;;;;;15.60;32.60;;;;;;5060260;28;20105;-65
2020/12/07 02:29:15;;;;;;;59.38;22.58;;;15.20;45.60;;;;;;5081476;28;19955;-63
2020/12/07 02:31:41;;;;;;;;;;;15.40;33.10;;;;;;5079234;28;20919;-63
2020/12/07 02:34:08;;;;;;;77.15;32.63;;;15.40;33.30;;;;;;5057955;28;19956;-63
2020/12/07 02:36:34;;;;;;;119.43;55.53;;;15.60;48.70;;;;;;5065588;28;20068;-65
2020/12/07 02:39:01;;;;;;;;;;;15.30;34.20;;;;;;5077683;28;20087;-64
2020/12/07 02:41:28;;;;;;;100.05;43.05;;;15.30;34.00;;;;;;5080302;28;19955;-62
2020/12/07 02:43:54;;;;;;;;;;;15.20;33.90;;;;;;5077161;28;20155;-64
2020/12/07 02:46:20;;;;;;;79.53;30.63;;;15.00;33.50;;;;;;5074550;28;20057;-64
2020/12/07 02:48:47;;;;;;;;;;;15.00;33.10;;;;;;5077035;28;20068;-66
2020/12/07 02:51:13;;;;;;;110.30;45.17;;;15.00;33.40;;;;;;5078976;28;20370;-65
2020/12/07 02:53:39;;;;;;;;;;;15.00;33.40;;;;;;5079688;28;20076;-64
2020/12/07 02:56:06;;;;;;;121.05;53.70;;;14.90;33.70;;;;;;5056905;28;19959;-65
2020/12/07 02:58:32;;;;;;;;;;;14.80;34.20;;;;;;5083150;28;20093;-65
2020/12/07 03:00:58;;;;;;;140.32;61.40;;;14.80;34.30;;;;;;5079567;28;20448;-64
2020/12/07 03:03:25;;;;;;;126.55;61.78;;;14.70;34.10;;;;;;5077779;28;20076;-63
2020/12/07 03:05:52;;;;;;;;;;;14.60;34.60;;;;;;5080322;28;20032;-63
2020/12/07 03:08:19;;;;;;;144.90;61.28;;;14.60;48.90;;;;;;5060160;28;20433;-64
2020/12/07 03:10:45;;;;;;;;;;;14.50;41.80;;;;;;5073201;28;20596;-64
2020/12/07 03:13:11;;;;;;;134.95;53.20;;;14.50;43.40;;;;;;5075803;28;19956;-61
2020/12/07 03:15:38;;;;;;;;;;;14.50;35.60;;;;;;5078416;28;20164;-64
2020/12/07 03:18:04;;;;;;;80.85;34.55;;;14.50;35.50;;;;;;5057138;28;21441;-64
2020/12/07 03:20:30;;;;;;;;;;;14.40;35.00;;;;;;5061258;28;20094;-64
2020/12/07 03:22:57;;;;;;;82.90;29.98;;;14.40;33.80;;;;;;5076345;28;19972;-65
2020/12/07 03:25:23;;;;;;;82.28;28.85;;;14.30;33.60;;;;;;5052285;28;20115;-64
2020/12/07 03:27:50;;;;;;;76.50;31.52;;;14.30;33.70;;;;;;5068515;28;20123;-62
2020/12/07 03:30:19;;;;;;;95.38;32.03;;;14.30;34.20;;;;;;5075110;28;20101;-63
2020/12/07 03:32:45;;;;;;;90.28;32.70;;;14.30;41.40;;;;;;5050875;28;20041;-63
2020/12/07 03:35:11;;;;;;;;;;;14.30;35.50;;;;;;5072390;28;20073;-63
2020/12/07 03:37:38;;;;;;;79.30;29.73;;;14.20;35.30;;;;;;5052401;28;19977;-63
2020/12/07 03:40:04;;;;;;;;;;;14.10;35.40;;;;;;5036391;28;20069;-63
2020/12/07 03:42:30;;;;;;;76.40;30.48;;;14.00;35.60;;;;;;5051183;28;19957;-63
2020/12/07 03:44:57;;;;;;;79.35;30.60;;;14.00;35.70;;;;;;5066437;28;20073;-64
2020/12/07 03:47:24;;;;;;;80.95;29.83;;;14.00;36.00;;;;;;5046060;28;20080;-64
2020/12/07 03:49:50;;;;;;;;;;;14.00;36.30;;;;;;5066738;28;20441;-64
2020/12/07 03:52:16;;;;;;;79.45;29.77;;;13.90;36.10;;;;;;5050998;28;19988;-63
2020/12/07 03:54:43;;;;;;;73.10;29.77;;;13.70;35.30;;;;;;5067807;28;20096;-63
2020/12/07 03:57:09;;;;;;;85.32;32.10;;;13.80;35.80;;;;;;5050300;28;20548;-65
2020/12/07 03:59:35;;;;;;;;;;;13.70;35.40;;;;;;5065274;28;20101;-65
2020/12/07 04:02:02;;;;;;;96.68;36.63;;;13.60;35.40;;;;;;5048050;28;19957;-64
2020/12/07 04:04:40;;;;;;;124.65;46.05;;;13.60;35.20;;;;;;5068478;28;20070;-64
2020/12/07 04:07:08;;;;;;;132.18;49.20;;;13.60;35.70;;;;;;5068658;28;20073;-63
2020/12/07 04:09:35;;;;;;;127.43;48.95;;;13.60;35.90;;;;;;5052710;28;20081;-64
2020/12/07 04:12:01;;;;;;;137.05;51.35;;;13.60;36.30;;;;;;5066057;28;20560;-64
2020/12/07 04:14:28;;;;;;;144.55;53.80;;;13.60;36.10;;;;;;5050877;28;20073;-63
2020/12/07 04:16:54;;;;;;;;;;;13.60;36.50;;;;;;5068701;28;20096;-64
2020/12/07 04:19:20;;;;;;;158.70;52.35;;;13.60;37.00;;;;;;5067489;28;19969;-62
2020/12/07 04:21:47;;;;;;;168.70;53.47;;;13.50;36.20;;;;;;5065827;28;20092;-65
2020/12/07 04:24:14;;;;;;;142.15;51.63;;;13.50;36.90;;;;;;5066265;28;20530;-63
2020/12/07 04:26:40;;;;;;;;;;;13.50;37.70;;;;;;5059103;28;20148;-63
2020/12/07 04:29:06;;;;;;;132.75;51.97;;;13.50;37.70;;;;;;5055638;28;20353;-64
2020/12/07 04:31:33;;;;;;;162.27;55.78;;;13.40;37.70;;;;;;5023214;28;20073;-64
2020/12/07 04:34:00;;;;;;;159.38;59.42;;;13.40;38.00;;;;;;5034834;28;20074;-64
2020/12/07 04:36:26;;;;;;;;;;;13.50;38.40;;;;;;5050455;28;20099;-64
2020/12/07 04:38:52;;;;;;;134.55;56.88;;;13.40;37.40;;;;;;5032534;28;20074;-63
2020/12/07 04:41:19;;;;;;;;;;;13.40;38.60;;;;;;5052556;28;20461;-63
2020/12/07 04:43:47;;;;;;;174.10;62.78;;;13.30;38.20;;;;;;5051355;28;20401;-64
2020/12/07 04:46:14;;;;;;;156.50;60.97;;;13.20;38.00;;;;;;5033350;28;20164;-64
2020/12/07 04:48:42;;;;;;;165.85;61.22;;;12.90;40.90;;;;;;5050263;28;20108;-64
2020/12/07 04:51:10;;;;;;;163.60;63.75;;;13.20;37.80;;;;;;5049625;28;20049;-65
2020/12/07 04:53:38;;;;;;;173.23;65.15;;;13.10;38.30;;;;;;5051768;28;20070;-64
2020/12/07 04:56:05;;;;;;;175.10;61.00;;;13.10;37.90;;;;;;5050378;28;20079;-64
2020/12/07 04:58:34;;;;;;;166.77;61.22;;;13.20;38.90;;;;;;5052540;28;20500;-64
2020/12/07 05:01:00;;;;;;;157.82;59.40;;;13.10;39.40;;;;;;5048895;28;20452;-65
2020/12/07 05:03:27;;;;;;;;;;;13.00;38.90;;;;;;5050090;28;20443;-63
2020/12/07 05:05:53;;;;;;;171.70;62.90;;;13.00;44.10;;;;;;5050543;28;19962;-65
2020/12/07 05:08:22;;;;;;;171.02;63.92;;;13.30;48.30;;;;;;5051423;28;20040;-63
2020/12/07 05:10:49;;;;;;;166.40;61.72;;;;;;;;;;5033616;28;21726;-64
2020/12/07 05:13:29;;;;;;;172.70;62.28;;;13.00;50.70;;;;;;5032644;28;20037;-64
2020/12/07 05:15:56;;;;;;;170.05;66.28;;;13.00;40.30;;;;;;5050504;28;20085;-63
2020/12/07 05:18:22;;;;;;;;;;;12.90;40.30;;;;;;5034379;28;20546;-64
2020/12/07 05:20:49;;;;;;;208.18;77.57;;;12.90;40.30;;;;;;5049616;28;20405;-65
2020/12/07 05:23:19;;;;;;;194.73;76.47;;;12.90;40.50;;;;;;5051062;28;20111;-63
2020/12/07 05:25:48;;;;;;;220.15;88.00;;;12.90;40.90;;;;;;5033604;28;20073;-65
2020/12/07 05:28:27;;;;;;;220.95;88.00;;;12.80;40.60;;;;;;5057848;28;20159;-65
2020/12/07 05:30:54;;;;;;;225.07;88.70;;;12.80;40.10;;;;;;5048683;28;20123;-64
2020/12/07 05:33:20;;;;;;;;;;;12.80;40.10;;;;;;5069107;28;20080;-63
2020/12/07 05:35:53;;;;;;;221.13;89.10;;;12.80;40.50;;;;;;5069343;28;19957;-64
2020/12/07 05:38:20;;;;;;;227.15;85.30;;;12.60;40.80;;;;;;5072005;28;20092;-64
2020/12/07 05:40:47;;;;;;;233.38;88.53;;;12.40;42.30;;;;;;5071166;28;20470;-66
2020/12/07 05:43:14;;;;;;;210.80;86.45;;;12.20;44.90;;;;;;5053729;28;20208;-63
2020/12/07 05:45:42;;;;;;;214.45;86.93;;;12.50;40.20;;;;;;5071398;28;20069;-63
2020/12/07 05:48:10;;;;;;;221.75;86.43;;;12.50;40.20;;;;;;5074344;28;20078;-64
2020/12/07 05:50:43;;;;;;;214.18;87.47;;;12.50;40.20;;;;;;5073334;28;20088;-62
2020/12/07 05:53:11;;;;;;;204.50;84.20;;;12.80;45.40;;;;;;5052246;28;20109;-63
2020/12/07 05:55:37;;;;;;;224.77;84.07;;;12.40;41.10;;;;;;5069588;28;20082;-62
2020/12/07 05:58:11;;;;;;;215.15;79.22;;;12.40;61.30;;;;;;5051057;28;20092;-64
2020/12/07 06:00:38;;;;;;;207.65;76.43;;;12.20;44.10;;;;;;5069680;28;20217;-65
2020/12/07 06:03:06;;;;;;;207.57;78.00;;;12.30;40.80;;;;;;5072253;28;20559;-63
2020/12/07 06:05:33;;;;;;;199.10;76.60;;;12.30;41.90;;;;;;5070219;28;20084;-64
2020/12/07 06:08:20;;;;;;;185.90;73.47;;;12.30;42.00;;;;;;5054141;28;20104;-64
2020/12/07 06:10:58;;;;;;;206.05;79.07;;;12.30;41.70;;;;;;5071442;28;20165;-64
2020/12/07 06:13:26;;;;;;;200.90;74.25;;;12.20;41.40;;;;;;5071074;28;20065;-63
2020/12/07 06:15:54;;;;;;;197.57;75.55;;;12.20;41.90;;;;;;5073400;28;20167;-64
2020/12/07 06:18:43;;;;;;;215.25;80.47;;;12.20;42.20;;;;;;5069573;28;20175;-63
2020/12/07 06:21:19;;;;;;;184.75;73.50;;;12.20;41.70;;;;;;5074766;28;20076;-61
2020/12/07 06:23:47;;;;;;;224.82;79.43;;;12.10;41.50;;;;;;5067293;28;20073;-64
2020/12/07 06:26:15;;;;;;;207.88;76.00;;;12.20;41.90;;;;;;5047420;28;20101;-63
2020/12/07 06:28:45;;;;;;;213.23;79.78;;;12.20;42.30;;;;;;5053468;28;20082;-65
2020/12/07 06:31:14;;;;;;;239.10;82.47;;;12.10;41.40;;;;;;5051738;28;20073;-64
2020/12/07 06:33:44;;;;;;;232.65;83.60;;;12.10;41.40;;;;;;5052475;28;21566;-68
2020/12/07 06:36:23;;;;;;;237.38;77.30;;;12.10;41.60;;;;;;5035074;28;20065;-66
2020/12/07 06:38:50;;;;;;;208.82;74.45;;;12.00;41.40;;;;;;5050041;28;20139;-65
2020/12/07 06:41:48;;;;;;;;;;;12.10;41.20;;;;;;5052141;28;20076;-65
2020/12/07 06:44:20;;;;;;;183.77;61.33;;;12.10;41.10;;;;;;5045458;28;20464;-64
2020/12/07 06:47:02;;;;;;;161.45;57.65;;;12.10;40.20;;;;;;5057316;28;20074;-64
2020/12/07 06:52:13;;;;;;;120.22;54.05;;;12.20;39.00;;;;;;5056464;28;20072;-62
2020/12/07 06:57:51;;;;;;;139.75;50.55;;;12.20;38.40;;;;;;5055559;28;20182;-65
2020/12/07 07:00:22;;;;;;;116.40;46.33;;;12.20;38.50;;;;;;5058120;28;20155;-64
2020/12/07 07:02:51;;;;;;;120.80;45.30;;;12.20;37.60;;;;;;5052086;28;20190;-63
2020/12/07 07:05:19;;;;;;;113.40;43.42;;;12.20;37.70;;;;;;5040444;28;20073;-64
2020/12/07 07:07:46;;;;;;;107.05;42.33;;;12.20;37.80;;;;;;5058790;28;20095;-63
2020/12/07 07:10:15;;;;;;;115.50;40.95;;;12.20;37.90;;;;;;5048436;28;20061;-64
2020/12/07 07:12:43;;;;;;;116.25;40.80;;;12.30;37.80;;;;;;5032965;28;20109;-64
2020/12/07 07:15:12;;;;;;;97.68;36.17;;;12.20;37.80;;;;;;5036947;28;20080;-61
2020/12/07 07:17:40;;;;;;;85.22;35.38;;;12.10;37.50;;;;;;5065727;28;20154;-62
2020/12/07 07:20:17;;;;;;;90.32;35.75;;;12.10;37.50;;;;;;5048812;28;20119;-63
2020/12/07 07:22:46;;;;;;;87.32;33.53;;;12.20;37.20;;;;;;5054152;28;20076;-63
2020/12/07 07:30:31;;;;;;;73.47;30.08;;;12.20;37.40;;;;;;5069044;28;20421;-62
2020/12/07 07:32:58;;;;;;;83.22;30.55;;;12.20;37.10;;;;;;5073872;28;20148;-63
2020/12/07 07:35:27;;;;;;;73.35;30.08;;;12.20;37.80;;;;;;5056838;28;21351;-63
2020/12/07 07:37:54;;;;;;;82.68;31.00;;;12.10;37.60;;;;;;5073916;28;20093;-63
2020/12/07 07:40:24;;;;;;;84.00;30.20;;;12.10;37.30;;;;;;5071140;28;20077;-63
2020/12/07 07:43:02;;;;;;;86.00;30.45;;;12.10;36.90;;;;;;5074028;28;20645;-64
2020/12/07 07:45:33;;;;;;;78.82;30.88;;;12.10;37.40;;;;;;5073477;28;20073;-62
2020/12/07 07:48:06;;;;;;;79.93;29.70;;;12.00;37.70;;;;;;5069841;28;20191;-63
2020/12/07 07:50:48;;;;;;;76.55;30.48;;;12.00;38.10;;;;;;5074433;28;20069;-64
2020/12/07 08:15:52;;;;;;;78.03;28.65;;;11.70;38.20;;;;;;5046999;28;20080;-63
2020/12/07 08:18:17;;;;;;;81.60;27.23;;;11.60;37.60;;;;;;5072240;28;20616;-63
2020/12/07 08:20:55;;;;;;;85.57;27.60;;;11.60;37.00;;;;;;5074634;28;20077;-63
2020/12/07 08:23:33;;;;;;;72.95;26.92;;;11.70;37.30;;;;;;5071321;28;20095;-64
2020/12/07 08:26:01;;;;;;;75.30;27.70;;;11.70;37.50;;;;;;5075877;28;20066;-64
2020/12/07 08:28:28;;;;;;;85.75;27.48;;;11.60;37.10;;;;;;5070552;28;20073;-65
2020/12/07 08:31:08;;;;;;;76.38;25.67;;;11.50;36.80;;;;;;5067731;28;20073;-62
2020/12/07 08:33:37;;;;;;;75.82;25.73;;;11.60;37.00;;;;;;5067773;28;20513;-63
2020/12/07 08:36:05;;;;;;;74.88;24.25;;;11.60;37.40;;;;;;5069893;28;20073;-63
2020/12/07 08:38:32;;;;;;;81.75;24.70;;;11.60;36.70;;;;;;5071800;28;20092;-63
2020/12/07 08:41:04;;;;;;;77.07;24.17;;;11.60;35.60;;;;;;5069007;28;20065;-64
2020/12/07 08:43:31;;;;;;;79.57;24.23;;;11.50;34.60;;;;;;5070206;28;20483;-62
2020/12/07 08:45:58;;;;;;;77.43;23.85;;;11.60;34.10;;;;;;5075360;28;20096;-64
2020/12/07 08:48:24;;;;;;;;;;;11.70;34.30;;;;;;5071011;28;20093;-63
2020/12/07 08:50:54;;;;;;;66.38;22.83;;;11.70;34.40;;;;;;5051799;28;19972;-63
2020/12/07 08:53:20;;;;;;;68.32;22.77;;;11.70;34.60;;;;;;5069425;28;20184;-64
2020/12/07 08:55:47;;;;;;;;;;;11.70;34.10;;;;;;5070089;28;20073;-63
2020/12/07 08:58:13;;;;;;;85.40;27.27;;;11.60;33.90;;;;;;5070405;28;19988;-64
2020/12/07 09:00:40;;;;;;;77.95;24.63;;;11.60;34.70;;;;;;5070915;28;20105;-63
2020/12/07 09:03:06;;;;;;;;;;;11.60;35.00;;;;;;5070137;28;20531;-63
2020/12/07 09:05:33;;;;;;;69.80;24.20;;;11.50;34.20;;;;;;5072321;28;19957;-63
2020/12/07 09:08:00;;;;;;;84.82;25.17;;;11.50;34.20;;;;;;5069374;28;20087;-63
2020/12/07 09:10:26;;;;;;;65.72;23.63;;;11.50;34.60;;;;;;5068460;28;20081;-63
2020/12/07 09:12:52;;;;;;;;;;;11.50;35.00;;;;;;5050959;28;20077;-63
2020/12/07 09:15:19;;;;;;;74.63;24.23;;;11.50;34.90;;;;;;5069469;28;20417;-62
2020/12/07 09:17:45;;;;;;;;;;;11.40;34.50;;;;;;5071124;28;20199;-62
2020/12/07 09:20:14;;;;;;;78.55;23.63;;;11.30;33.60;;;;;;5068542;28;19963;-66
2020/12/07 09:22:40;;;;;;;78.50;23.05;;;11.40;34.10;;;;;;5036941;28;20420;-63
2020/12/07 09:25:07;;;;;;;79.30;23.77;;;11.40;35.00;;;;;;5056494;28;20181;-63
2020/12/07 09:27:33;;;;;;;;;;;11.40;35.40;;;;;;5071380;28;20513;-64
2020/12/07 09:29:59;;;;;;;74.85;22.98;;;11.50;35.50;;;;;;5068139;28;20352;-63
2020/12/07 09:32:26;;;;;;;;;;;11.40;35.30;;;;;;5052456;28;20445;-65
2020/12/07 09:34:52;;;;;;;74.03;22.25;;;11.40;34.80;;;;;;5068614;28;19962;-63
2020/12/07 09:37:18;;;;;;;;;;;11.40;34.80;;;;;;5050512;28;20113;-63
2020/12/07 09:39:45;;;;;;;79.90;22.80;;;11.30;35.10;;;;;;5069295;28;20052;-63
2020/12/07 09:42:11;;;;;;;;;;;11.30;35.50;;;;;;5070342;28;20436;-62
2020/12/07 09:44:38;;;;;;;84.07;23.88;;;11.30;36.00;;;;;;5071949;28;19961;-63
2020/12/07 09:47:04;;;;;;;;;;;11.30;36.10;;;;;;5068999;28;20065;-61
2020/12/07 09:49:31;;;;;;;82.85;22.85;;;11.20;35.50;;;;;;5052425;28;19979;-62
2020/12/07 09:51:58;;;;;;;80.70;22.15;;;11.20;34.30;;;;;;5068754;28;20084;-62
2020/12/07 09:54:25;;;;;;;92.93;24.45;;;11.20;34.50;;;;;;5069432;28;20072;-62
2020/12/07 09:56:51;;;;;;;;;;;11.20;34.50;;;;;;5070435;28;20084;-63
2020/12/07 09:59:18;;;;;;;90.03;24.92;;;11.20;34.50;;;;;;5073013;28;19964;-62
2020/12/07 10:01:44;;;;;;;79.15;23.95;;;11.20;34.50;;;;;;5058223;28;20065;-63
2020/12/07 10:04:10;;;;;;;;;;;11.20;34.60;;;;;;5062016;28;20077;-64
2020/12/07 10:06:37;;;;;;;80.72;23.52;;;11.20;35.10;;;;;;5072538;28;19968;-62
2020/12/07 10:09:04;;;;;;;87.03;23.23;;;11.20;34.90;;;;;;5073729;28;20091;-63
2020/12/07 10:11:30;;;;;;;84.40;23.02;;;11.10;34.30;;;;;;5062548;28;20223;-63
2020/12/07 10:13:56;;;;;;;;;;;11.20;34.60;;;;;;5062262;28;20073;-62
2020/12/07 10:16:23;;;;;;;83.18;23.67;;;11.10;34.90;;;;;;5069382;28;20176;-63
2020/12/07 10:18:49;;;;;;;91.88;24.10;;;11.10;35.80;;;;;;5067986;28;20093;-64
2020/12/07 10:21:15;;;;;;;;;;;11.10;35.40;;;;;;5051549;28;20089;-63
2020/12/07 10:23:42;;;;;;;87.78;23.42;;;11.20;35.10;;;;;;5067997;28;20528;-62
2020/12/07 10:26:09;;;;;;;80.57;24.42;;;11.10;35.00;;;;;;5046756;28;20178;-62
2020/12/07 10:28:36;;;;;;;77.85;23.77;;;11.10;34.70;;;;;;5041296;28;20097;-63
2020/12/07 10:31:02;;;;;;;;;;;11.20;34.70;;;;;;5055500;28;20544;-64
2020/12/07 10:33:28;;;;;;;82.88;23.75;;;11.10;35.10;;;;;;5057526;28;19956;-64
2020/12/07 10:35:55;;;;;;;88.82;23.02;;;11.10;35.80;;;;;;5056903;28;20105;-63
2020/12/07 10:38:21;;;;;;;;;;;11.00;35.40;;;;;;5058437;28;20100;-63
2020/12/07 10:40:47;;;;;;;91.43;24.33;;;11.10;34.80;;;;;;5050036;28;19968;-63
2020/12/07 10:43:14;;;;;;;;;;;11.10;34.80;;;;;;5060346;28;20073;-62
2020/12/07 10:45:40;;;;;;;80.55;23.17;;;11.10;34.60;;;;;;5048962;28;19957;-63
2020/12/07 10:48:06;;;;;;;;;;;11.10;34.30;;;;;;5051184;28;20105;-63
2020/12/07 10:50:33;;;;;;;81.70;22.05;;;11.10;35.10;;;;;;5054762;28;20509;-63
2020/12/07 10:53:00;;;;;;;76.55;23.80;;;11.10;35.20;;;;;;5053443;28;20150;-65
2020/12/07 10:55:26;;;;;;;77.07;22.40;;;11.00;35.10;;;;;;5057763;28;20781;-64
2020/12/07 10:57:52;;;;;;;;;;;11.00;35.60;;;;;;5057217;28;20100;-63
2020/12/07 11:00:20;;;;;;;90.20;23.55;;;11.00;35.70;;;;;;5073589;28;19957;-63
2020/12/07 11:02:46;;;;;;;71.05;22.70;;;11.00;36.00;;;;;;5056733;28;20073;-63
2020/12/07 11:05:13;;;;;;;68.72;21.60;;;11.00;36.20;;;;;;5054313;28;20603;-64
2020/12/07 11:07:41;;;;;;;;;;;11.00;35.70;;;;;;5057273;28;20073;-63
2020/12/07 11:10:07;;;;;;;83.03;22.10;;;11.10;35.90;;;;;;5056500;28;20004;-62
2020/12/07 11:12:34;;;;;;;;;;;11.10;35.50;;;;;;5053638;28;20105;-64
2020/12/07 11:15:00;;;;;;;96.88;23.75;;;11.00;35.90;;;;;;5035348;28;20441;-64
2020/12/07 11:17:27;;;;;;;78.30;22.13;;;11.00;35.80;;;;;;5051481;28;20108;-64
2020/12/07 11:19:53;;;;;;;;;;;10.90;35.00;;;;;;5053616;28;20542;-63
2020/12/07 11:22:19;;;;;;;73.85;21.65;;;10.80;35.30;;;;;;5052944;28;19957;-63
2020/12/07 11:24:46;;;;;;;75.63;21.58;;;10.90;35.50;;;;;;5035096;28;20464;-63
2020/12/07 11:27:12;;;;;;;;;;;10.90;35.30;;;;;;5054873;28;20116;-63
2020/12/07 11:29:39;;;;;;;78.93;20.98;;;10.90;35.20;;;;;;5054744;28;19963;-63
2020/12/07 11:32:05;;;;;;;62.92;19.95;;;10.80;34.40;;;;;;5055393;28;20074;-64
2020/12/07 11:34:31;;;;;;;;;;;10.90;34.50;;;;;;5035611;28;20081;-62
2020/12/07 11:36:58;;;;;;;74.18;19.95;;;10.90;34.70;;;;;;5057439;28;19988;-62
2020/12/07 11:44:23;;;;;;;49.80;13.82;;;10.90;32.10;;;;;;5050079;28;20108;-63
2020/12/07 11:46:58;;;;;;;;;;;11.00;31.40;;;;;;5052187;28;20473;-62
2020/12/07 11:49:25;;;;;;;37.58;11.88;;;10.90;30.50;;;;;;5054796;28;19968;-62
2020/12/07 11:51:52;;;;;;;43.55;12.32;;;11.00;30.50;;;;;;5052805;28;20080;-63
2020/12/07 11:54:18;;;;;;;;;;;11.00;30.40;;;;;;5032513;28;20066;-64
2020/12/07 11:56:45;;;;;;;44.17;11.55;;;11.10;30.10;;;;;;5028538;28;19960;-63
2020/12/07 11:59:11;;;;;;;;;;;11.00;29.50;;;;;;5054126;28;20429;-63
2020/12/07 12:01:38;;;;;;;34.30;10.50;;;11.10;29.30;;;;;;5054645;28;19960;-63
2020/12/07 12:04:05;;;;;;;31.17;10.35;;;11.00;30.00;;;;;;5054623;28;20085;-63
2020/12/07 12:06:38;;;;;;;32.40;9.23;;;11.00;30.20;;;;;;5054210;28;20078;-62
2020/12/07 12:09:14;;;;;;;30.85;10.07;;;11.00;30.20;;;;;;5051171;28;20101;-64
2020/12/07 12:11:43;;;;;;;26.40;9.50;;;11.00;30.00;;;;;;5053673;28;20073;-64
2020/12/07 12:14:11;;;;;;;28.27;8.50;;;11.00;29.50;;;;;;5054559;28;20073;-63
2020/12/07 12:16:39;;;;;;;24.65;8.05;;;11.00;29.30;;;;;;5035576;28;20084;-64
2020/12/07 12:19:09;;;;;;;26.63;7.47;;;11.10;29.30;;;;;;5053931;28;20097;-64
2020/12/07 12:21:37;;;;;;;25.67;7.20;;;11.10;30.00;;;;;;5055789;28;20092;-63
2020/12/07 12:24:05;;;;;;;25.08;7.03;;;11.10;30.10;;;;;;5051161;28;20112;-64
2020/12/07 12:26:35;;;;;;;18.20;7.00;;;11.10;30.00;;;;;;5070293;28;20111;-64
2020/12/07 12:29:03;;;;;;;19.95;6.68;;;11.10;29.90;;;;;;5054787;28;20545;-63
2020/12/07 12:31:30;;;;;;;19.80;5.93;;;11.20;29.50;;;;;;5052945;28;20482;-64
2020/12/07 12:33:57;;;;;;;16.38;5.95;;;11.20;29.30;;;;;;5047788;28;21528;-62
2020/12/07 12:36:28;;;;;;;19.98;5.45;;;11.20;29.40;;;;;;5055755;28;20120;-63
2020/12/07 12:38:55;;;;;;;22.33;6.57;;;11.20;29.30;;;;;;5053095;28;20576;-62
2020/12/07 12:41:23;;;;;;;22.05;6.88;;;11.20;29.30;;;;;;5051129;28;20076;-63
2020/12/07 12:43:49;;;;;;;26.08;8.15;;;11.30;28.50;;;;;;5053400;28;20122;-63
2020/12/07 12:46:16;;;;;;;22.50;8.43;;;11.30;28.10;;;;;;5039475;28;20175;-63
2020/12/07 12:48:43;;;;;;;18.63;8.07;;;11.30;28.80;;;;;;5032978;28;20101;-63
2020/12/07 12:51:11;;;;;;;24.38;8.70;;;11.20;28.60;;;;;;5035207;28;20077;-64
2020/12/07 12:53:39;;;;;;;31.15;8.13;;;11.20;28.80;;;;;;5055940;28;20092;-63
2020/12/07 12:56:09;;;;;;;31.63;9.35;;;11.20;28.90;;;;;;5036330;28;20070;-63
2020/12/07 12:58:41;;;;;;;23.42;8.57;;;11.20;29.40;;;;;;5071880;28;20106;-64
2020/12/07 13:01:08;;;;;;;20.48;8.48;;;11.20;29.90;;;;;;5021422;28;20104;-63
2020/12/07 13:03:35;;;;;;;21.52;8.63;;;11.10;30.70;;;;;;5055767;28;20513;-63
2020/12/07 13:06:02;;;;;;;25.40;8.23;;;11.10;30.60;;;;;;5042012;28;20556;-63
2020/12/07 13:08:28;;;;;;;;;;;11.10;30.50;;;;;;5055557;28;20086;-62
2020/12/07 13:10:54;;;;;;;21.73;7.55;;;11.00;30.60;;;;;;5057958;28;19975;-64
2020/12/07 13:13:21;;;;;;;;;;;11.00;30.90;;;;;;5040404;28;20079;-64
2020/12/07 13:15:52;;;;;;;18.48;6.90;;;10.90;30.40;;;;;;5040927;28;20322;-64
2020/12/07 13:18:19;;;;;;;20.40;7.70;;;10.90;30.60;;;;;;5054257;28;20093;-63
2020/12/07 13:28:16;;;;;;;18.50;6.93;;;10.90;32.10;;;;;;5053009;28;20073;-63
2020/12/07 13:30:43;;;;;;;;;;;11.00;32.40;;;;;;5071275;28;20563;-63
2020/12/07 13:33:11;;;;;;;28.33;6.78;;;11.00;32.20;;;;;;5085142;28;19979;-64
2020/12/07 13:35:39;;;;;;;26.98;6.72;;;10.90;32.50;;;;;;5066975;28;20077;-64
2020/12/07 13:38:06;;;;;;;21.88;5.95;;;10.90;32.80;;;;;;5068771;28;20150;-63